»·PEaware :: DAL688 KATL-KMIA

DAL688 :: KATL-KMIA

FLIGHT INFORMATION

Flight Status: Arrived
Operator:
Delta Air Lines
More flights by this operator :: More flights under this callsign
Pilot: Anonymous 14085 (14085)
Aircraft: MCDONNELL-DOUGLAS MD-82
(MD82)
More flights by this aircraft type
Origin: KATL Hartsfield-Jackson Atlanta
United States
Destination: KMIA Miami Intl
United States
More flights between these airports :: More routes between these airports
Route: BANG2 LUCKK SZW SSCOT3
File this flight plan on PilotEdge
Remarks:
Altitude:
(Current/Filed)
33,000ft
Speed:
(Current/Filed)
450kts
Departed: 25-Jan-17 10:44 PM
Arrived: 26-Jan-17 12:37 AM
Distance/Time
Traveled:
518nm/1:53
Distance/Time
To Go:
Arrived

Flight Plot

Page will automatically refresh every two minutes.

Flight plan parsing failed; only flown route is shown


Map Options




Map Legend


Flown Route
Filed Route
Departure Airport
Arrival Airport
Navaid (VOR, NDB)
Fix

Horizontal Profiles

Position Reports

Time Latitude Longitude Heading Altitude Ground
Speed
25-Jan-17 22:43 33.635790 -84.422303 89 1031ft 1kts
25-Jan-17 22:44 33.635806 -84.414110 88 1031ft 44kts
25-Jan-17 22:45 33.635811 -84.409802 90 1031ft 0kts
25-Jan-17 22:46 33.635786 -84.409433 107 1031ft 6kts
25-Jan-17 22:47 33.634697 -84.411587 268 1031ft 60kts
25-Jan-17 22:48 33.634694 -84.433730 268 1032ft 154kts
25-Jan-17 22:49 33.634801 -84.500166 267 2412ft 254kts
25-Jan-17 22:50 33.634730 -84.586277 266 5704ft 264kts
25-Jan-17 22:51 33.617664 -84.664281 217 8954ft 256kts
25-Jan-17 22:52 33.552412 -84.690641 175 11677ft 269kts
25-Jan-17 22:53 33.478043 -84.678014 173 14369ft 273kts
25-Jan-17 22:54 33.403814 -84.658572 159 16075ft 307kts
25-Jan-17 22:55 33.334948 -84.621899 158 17477ft 332kts
25-Jan-17 22:56 33.250207 -84.576295 158 19795ft 339kts
25-Jan-17 22:57 33.163848 -84.529862 157 21917ft 345kts
25-Jan-17 22:58 33.061097 -84.474749 157 24161ft 353kts
25-Jan-17 22:59 32.970192 -84.426449 162 25790ft 364kts
25-Jan-17 23:00 32.868271 -84.419692 176 27277ft 375kts
25-Jan-17 23:01 32.763359 -84.417430 177 28682ft 384kts
25-Jan-17 23:02 32.656865 -84.415290 176 30363ft 382kts
25-Jan-17 23:03 32.551610 -84.413190 176 31986ft 379kts
25-Jan-17 23:04 32.464591 -84.411473 177 32857ft 374kts
25-Jan-17 23:05 32.366231 -84.409480 176 32888ft 376kts
25-Jan-17 23:06 32.262156 -84.407421 177 32884ft 375kts
25-Jan-17 23:07 32.158356 -84.405342 176 33313ft 374kts
25-Jan-17 23:08 32.053405 -84.403257 176 34326ft 382kts
25-Jan-17 23:09 31.948206 -84.401184 177 35308ft 379kts
25-Jan-17 23:10 31.843377 -84.399098 176 36282ft 377kts
25-Jan-17 23:11 31.749925 -84.397236 177 36912ft 378kts
25-Jan-17 23:12 31.640089 -84.395085 176 36920ft 376kts
25-Jan-17 23:13 31.535789 -84.393038 177 36919ft 376kts
25-Jan-17 23:14 31.431152 -84.390973 177 36943ft 390kts
25-Jan-17 23:15 31.323416 -84.388862 177 36940ft 388kts
25-Jan-17 23:16 31.215704 -84.386777 176 36935ft 388kts
25-Jan-17 23:17 31.108162 -84.384667 176 36937ft 388kts
25-Jan-17 23:18 31.004701 -84.382662 177 36935ft 388kts
25-Jan-17 23:19 30.897055 -84.380569 177 36943ft 388kts
25-Jan-17 23:20 30.789345 -84.378478 177 36941ft 388kts
25-Jan-17 23:21 30.681612 -84.376407 177 36939ft 388kts
25-Jan-17 23:22 30.573979 -84.374192 173 36931ft 388kts
25-Jan-17 23:23 30.477194 -84.321758 152 36936ft 389kts
25-Jan-17 23:24 30.384269 -84.261123 152 36976ft 389kts
25-Jan-17 23:25 30.290607 -84.199858 152 36976ft 388kts
25-Jan-17 23:26 30.196904 -84.138683 152 36974ft 388kts
25-Jan-17 23:27 30.102795 -84.077409 152 36972ft 388kts
25-Jan-17 23:28 30.009137 -84.016526 152 36971ft 388kts
25-Jan-17 23:29 29.929314 -83.937195 110 36993ft 412kts
25-Jan-17 23:30 29.983576 -83.821462 27 37006ft 489kts
25-Jan-17 23:31 30.109729 -83.856929 304 37005ft 496kts
25-Jan-17 23:32 30.179826 -83.992077 295 36977ft 489kts
25-Jan-17 23:33 30.247483 -84.126240 295 36974ft 488kts
25-Jan-17 23:34 30.352334 -84.216663 358 37016ft 507kts
25-Jan-17 23:35 30.472847 -84.164149 66 37007ft 461kts
25-Jan-17 23:36 30.455700 -84.042993 147 36993ft 390kts
25-Jan-17 23:37 30.363430 -83.978898 150 36976ft 388kts
25-Jan-17 23:38 30.271714 -83.913732 150 36974ft 388kts
25-Jan-17 23:39 30.180933 -83.849287 151 36976ft 388kts
25-Jan-17 23:40 30.088880 -83.784389 150 36974ft 388kts
25-Jan-17 23:41 29.997067 -83.719858 150 36973ft 388kts
25-Jan-17 23:42 29.905125 -83.655385 150 36971ft 388kts
25-Jan-17 23:43 29.812966 -83.590847 151 36970ft 388kts
25-Jan-17 23:44 29.721183 -83.526754 151 37013ft 388kts
25-Jan-17 23:45 29.629114 -83.462613 151 37013ft 388kts
25-Jan-17 23:46 29.537088 -83.398614 151 37010ft 388kts
25-Jan-17 23:47 29.445257 -83.334890 151 37011ft 388kts
25-Jan-17 23:48 29.353077 -83.271111 151 37023ft 388kts
25-Jan-17 23:49 29.260696 -83.207262 151 37021ft 388kts
25-Jan-17 23:50 29.168467 -83.143679 150 37019ft 388kts
25-Jan-17 23:51 29.076414 -83.080361 151 37018ft 388kts
25-Jan-17 23:52 28.983952 -83.016874 151 37016ft 388kts
25-Jan-17 23:53 28.891689 -82.953662 151 37014ft 388kts
25-Jan-17 23:54 28.804744 -82.894217 151 37031ft 388kts
25-Jan-17 23:55 28.712161 -82.830745 151 37037ft 400kts
25-Jan-17 23:56 28.616773 -82.765747 151 37031ft 400kts
25-Jan-17 23:57 28.521763 -82.701214 151 37030ft 399kts
25-Jan-17 23:58 28.427226 -82.637120 151 37042ft 400kts
25-Jan-17 23:59 28.332157 -82.572832 151 37069ft 400kts
26-Jan-17 00:00 28.236825 -82.508452 151 37068ft 400kts
26-Jan-17 00:01 28.141594 -82.444317 151 37066ft 400kts
26-Jan-17 00:02 28.046129 -82.380121 151 37064ft 400kts
26-Jan-17 00:03 27.950739 -82.316143 151 37062ft 400kts
26-Jan-17 00:04 27.855489 -82.252375 151 37070ft 400kts
26-Jan-17 00:05 27.760232 -82.188727 151 37068ft 400kts
26-Jan-17 00:06 27.664676 -82.125034 151 37065ft 400kts
26-Jan-17 00:07 27.573338 -82.064222 151 36758ft 353kts
26-Jan-17 00:08 27.490551 -82.009284 151 36274ft 348kts
26-Jan-17 00:09 27.407947 -81.954518 151 35762ft 344kts
26-Jan-17 00:10 27.325316 -81.899847 151 32862ft 352kts
26-Jan-17 00:11 27.242735 -81.845107 152 30281ft 351kts
26-Jan-17 00:12 27.156638 -81.788290 151 27158ft 370kts
26-Jan-17 00:13 27.066902 -81.729231 151 24205ft 380kts
26-Jan-17 00:14 26.981092 -81.672813 152 24032ft 351kts
26-Jan-17 00:15 26.896792 -81.617557 151 24035ft 352kts
26-Jan-17 00:16 26.814436 -81.563404 147 23154ft 358kts
26-Jan-17 00:17 26.743336 -81.482844 138 21166ft 359kts
26-Jan-17 00:18 26.674283 -81.404196 139 19138ft 353kts
26-Jan-17 00:19 26.604789 -81.325243 138 17565ft 362kts
26-Jan-17 00:20 26.534856 -81.245906 138 16272ft 357kts
26-Jan-17 00:21 26.462171 -81.161960 137 15264ft 382kts
26-Jan-17 00:22 26.406722 -81.096526 137 14506ft 375kts
26-Jan-17 00:23 26.339732 -81.017597 137 13478ft 326kts
26-Jan-17 00:24 26.281233 -80.948844 137 12303ft 294kts
26-Jan-17 00:25 26.225123 -80.882930 136 10233ft 295kts
26-Jan-17 00:26 26.169954 -80.818044 135 8189ft 295kts
26-Jan-17 00:27 26.114526 -80.753210 133 6196ft 291kts
26-Jan-17 00:28 26.063597 -80.693676 132 4607ft 280kts
26-Jan-17 00:29 26.013076 -80.634668 132 3567ft 250kts
26-Jan-17 00:30 25.967619 -80.581693 133 2537ft 227kts
26-Jan-17 00:31 25.925790 -80.533032 133 1548ft 213kts
26-Jan-17 00:32 25.884785 -80.485364 133 1500ft 214kts
26-Jan-17 00:33 25.844215 -80.438206 133 1574ft 209kts
26-Jan-17 00:34 25.807791 -80.388441 113 1640ft 186kts
26-Jan-17 00:35 25.801342 -80.340322 94 864ft 154kts
26-Jan-17 00:36 25.800952 -80.296103 88 13ft 124kts
26-Jan-17 00:37 25.798537 -80.281165 190 12ft 12kts

Navigation Log

Ident Type
Flight plan parsing failed, navigation log unavailable